メインページ
METAR-TAF:

METAR-TAF

空港 :

ブラジリア, ブラジリア連邦直轄区, ブラジル

プレジデント・ジュセリノ・クビシェッキ国際空港

緯度: 15-52S, 経度: 047-56W, 海抜: 1061m

現時点の気象観測

当レポートは1時間1分前の05:00(UTC)に作成
の風 3kt
気温 20°C
湿度 83%
気圧 1017 hPa
視程10km以上
高度3000ftの雲はほとんどない

METAR: SBBR 250500Z 19003KT 9999 FEW030 20/17 Q1017

時間: 03:01 (06:01 UTC)

予報

当レポートは2時間1分前の04:00(UTC)に作成
予報は25日の 06時(UTC)から 26日の 06時(UTC)まで有効
の風 kt
視程10km以上
高度1000ftの雲はほとんどない
25日の 10時(UTC)から 25日の 12時(UTC)まで徐々に
の風 5kt
高度3000ftの雲は散在している
25日の 14時(UTC)から 25日の 16時(UTC)まで徐々に
南/南東の風 7kt
高度3000ftの千切れ雲あり
高度4000ftの雲はほとんどない, 塔状積雲.
25日の 18時(UTC)から 25日の 20時(UTC)まで徐々に
北/北西の風 8kt
高度3500ftの雲は散在している
高度4000ftの雲はほとんどない, 塔状積雲.
25日の 22時(UTC)から 25日の 24時(UTC)まで徐々に
南/南東の風 5kt
高度3500ftの雲はほとんどない
高度4000ftの雲はほとんどない, 積乱雲.
近辺で激しい雷雨
26日の 04時(UTC)から 26日の 06時(UTC)まで徐々に
視程10km以上
1,500メートル以下は雲なし、積乱雲なし

TAF: SBBR 250400Z 2506/2606 00000KT 9999 FEW010 TN20/2508Z TX28/2517Z BECMG 2510/2512 35005KT SCT030 BECMG 2514/2516 15007KT BKN030 FEW040TCU BECMG 2518/2520 33008KT SCT035 FEW040TCU BECMG 2522/2524 15005KT VCTS FEW035 FEW040CB BECMG 2604/2606 CAVOK RMK PEW

4,000以上の空港の気象観測と天気予報(METAR報とTAF報)

利用可能な観測所は地図上に黄色い丸と赤い丸で示す。

丸の上にカーソルを重ねると観測所名を参照できる。

次にクリックすると気象観測と天気予報を参照できる。

マップの切り替え:黒色「×」印の緑ボタンをクリックして拡大、「-」印の緑ボタンをクリックして縮小、緑色の三角印をクリックして隣りの地図に切り替え


METAR-TAF: